sensor_id;sensor_type;location;lat;lon;timestamp;pressure;altitude;pressure_sealevel;temperature;humidity
50977;BME280;36992;48.200;12.418;2023-03-14T00:01:36;95247.47;;;13.62;45.70
50977;BME280;36992;48.200;12.418;2023-03-14T00:04:04;95242.16;;;13.66;45.66
50977;BME280;36992;48.200;12.418;2023-03-14T00:06:30;95234.81;;;13.66;45.75
50977;BME280;36992;48.200;12.418;2023-03-14T00:08:57;95236.03;;;13.69;45.41
50977;BME280;36992;48.200;12.418;2023-03-14T00:11:25;95240.41;;;13.73;45.69
50977;BME280;36992;48.200;12.418;2023-03-14T00:13:52;95261.59;;;13.71;45.70
50977;BME280;36992;48.200;12.418;2023-03-14T00:16:19;95265.88;;;13.72;46.15
50977;BME280;36992;48.200;12.418;2023-03-14T00:18:45;95260.84;;;13.71;46.58
50977;BME280;36992;48.200;12.418;2023-03-14T00:21:12;95251.94;;;13.70;46.70
50977;BME280;36992;48.200;12.418;2023-03-14T00:23:40;95251.94;;;13.70;46.77
50977;BME280;36992;48.200;12.418;2023-03-14T00:26:09;95238.41;;;13.70;46.69
50977;BME280;36992;48.200;12.418;2023-03-14T00:28:37;95221.38;;;13.70;47.06
50977;BME280;36992;48.200;12.418;2023-03-14T00:31:04;95222.06;;;13.67;47.17
50977;BME280;36992;48.200;12.418;2023-03-14T00:33:31;95215.88;;;13.66;47.11
50977;BME280;36992;48.200;12.418;2023-03-14T00:35:59;95216.66;;;13.67;47.20
50977;BME280;36992;48.200;12.418;2023-03-14T00:38:26;95217.00;;;13.65;47.29
50977;BME280;36992;48.200;12.418;2023-03-14T00:40:53;95229.75;;;13.65;47.29
50977;BME280;36992;48.200;12.418;2023-03-14T00:43:21;95223.56;;;13.64;47.19
50977;BME280;36992;48.200;12.418;2023-03-14T00:45:49;95215.09;;;13.66;47.07
50977;BME280;36992;48.200;12.418;2023-03-14T00:48:16;95203.81;;;13.63;47.14
50977;BME280;36992;48.200;12.418;2023-03-14T00:50:43;95191.44;;;13.62;47.29
50977;BME280;36992;48.200;12.418;2023-03-14T00:53:09;95179.84;;;13.62;47.53
50977;BME280;36992;48.200;12.418;2023-03-14T00:55:36;95175.56;;;13.61;47.57
50977;BME280;36992;48.200;12.418;2023-03-14T00:58:03;95163.94;;;13.60;47.67
50977;BME280;36992;48.200;12.418;2023-03-14T01:00:29;95152.31;;;13.60;47.47
50977;BME280;36992;48.200;12.418;2023-03-14T01:02:57;95185.59;;;13.60;47.99
50977;BME280;36992;48.200;12.418;2023-03-14T01:05:24;95193.28;;;13.58;48.30
50977;BME280;36992;48.200;12.418;2023-03-14T01:07:51;95190.13;;;13.56;48.24
50977;BME280;36992;48.200;12.418;2023-03-14T01:10:17;95194.75;;;13.56;48.70
50977;BME280;36992;48.200;12.418;2023-03-14T01:12:44;95213.69;;;13.56;48.67
50977;BME280;36992;48.200;12.418;2023-03-14T01:15:10;95207.50;;;13.55;48.35
50977;BME280;36992;48.200;12.418;2023-03-14T01:17:37;95221.00;;;13.55;48.53
50977;BME280;36992;48.200;12.418;2023-03-14T01:20:07;95223.03;;;13.58;48.31
50977;BME280;36992;48.200;12.418;2023-03-14T01:22:35;95229.13;;;13.55;48.72
50977;BME280;36992;48.200;12.418;2023-03-14T01:25:01;95232.97;;;13.54;48.63
50977;BME280;36992;48.200;12.418;2023-03-14T01:27:28;95232.53;;;13.52;48.73
50977;BME280;36992;48.200;12.418;2023-03-14T01:29:54;95228.25;;;13.51;48.85
50977;BME280;36992;48.200;12.418;2023-03-14T01:32:21;95228.63;;;13.49;48.66
50977;BME280;36992;48.200;12.418;2023-03-14T01:34:49;95230.84;;;13.47;48.82
50977;BME280;36992;48.200;12.418;2023-03-14T01:37:16;95227.03;;;13.48;48.64
50977;BME280;36992;48.200;12.418;2023-03-14T01:39:43;95219.59;;;13.45;48.99
50977;BME280;36992;48.200;12.418;2023-03-14T01:42:09;95227.69;;;13.45;48.90
50977;BME280;36992;48.200;12.418;2023-03-14T01:44:49;95229.84;;;13.52;48.05
50977;BME280;36992;48.200;12.418;2023-03-14T01:47:16;95246.31;;;13.47;48.90
50977;BME280;36992;48.200;12.418;2023-03-14T01:49:44;95246.75;;;13.49;48.73
50977;BME280;36992;48.200;12.418;2023-03-14T01:52:13;95253.72;;;13.50;48.85
50977;BME280;36992;48.200;12.418;2023-03-14T01:54:46;95254.97;;;13.53;48.37
50977;BME280;36992;48.200;12.418;2023-03-14T01:57:16;95249.53;;;13.53;48.80
50977;BME280;36992;48.200;12.418;2023-03-14T01:59:47;95236.81;;;13.53;48.65
50977;BME280;36992;48.200;12.418;2023-03-14T02:02:15;95240.19;;;13.50;48.79
50977;BME280;36992;48.200;12.418;2023-03-14T02:04:42;95234.03;;;13.49;48.91
50977;BME280;36992;48.200;12.418;2023-03-14T02:07:12;95221.72;;;13.52;48.83
50977;BME280;36992;48.200;12.418;2023-03-14T02:09:43;95216.22;;;13.48;49.07
50977;BME280;36992;48.200;12.418;2023-03-14T02:12:12;95223.97;;;13.50;49.44
50977;BME280;36992;48.200;12.418;2023-03-14T02:14:40;95231.66;;;13.48;49.91
50977;BME280;36992;48.200;12.418;2023-03-14T02:17:07;95246.31;;;13.47;49.95
50977;BME280;36992;48.200;12.418;2023-03-14T02:19:44;95245.63;;;13.50;48.71
50977;BME280;36992;48.200;12.418;2023-03-14T02:22:14;95237.06;;;13.48;50.17
50977;BME280;36992;48.200;12.418;2023-03-14T02:24:48;95235.16;;;13.48;49.51
50977;BME280;36992;48.200;12.418;2023-03-14T02:27:19;95228.53;;;13.46;50.38
50977;BME280;36992;48.200;12.418;2023-03-14T02:29:51;95233.09;;;13.45;50.79
50977;BME280;36992;48.200;12.418;2023-03-14T02:32:19;95228.75;;;13.41;51.91
50977;BME280;36992;48.200;12.418;2023-03-14T02:34:49;95239.09;;;13.39;52.29
50977;BME280;36992;48.200;12.418;2023-03-14T02:37:17;95232.03;;;13.34;53.41
50977;BME280;36992;48.200;12.418;2023-03-14T02:39:45;95246.59;;;13.29;54.66
50977;BME280;36992;48.200;12.418;2023-03-14T02:42:14;95240.31;;;13.25;55.15
50977;BME280;36992;48.200;12.418;2023-03-14T02:44:58;95238.81;;;13.28;54.45
50977;BME280;36992;48.200;12.418;2023-03-14T02:47:29;95244.13;;;13.24;54.81
50977;BME280;36992;48.200;12.418;2023-03-14T02:50:00;95243.72;;;13.22;55.46
50977;BME280;36992;48.200;12.418;2023-03-14T02:52:28;95234.72;;;13.18;55.53
50977;BME280;36992;48.200;12.418;2023-03-14T02:54:54;95229.91;;;13.11;56.17
50977;BME280;36992;48.200;12.418;2023-03-14T02:57:21;95227.53;;;13.09;56.17
50977;BME280;36992;48.200;12.418;2023-03-14T02:59:47;95230.25;;;13.09;55.63
50977;BME280;36992;48.200;12.418;2023-03-14T03:02:15;95217.41;;;13.06;55.55
50977;BME280;36992;48.200;12.418;2023-03-14T03:04:42;95214.97;;;13.01;55.89
50977;BME280;36992;48.200;12.418;2023-03-14T03:07:08;95207.97;;;13.00;55.84
50977;BME280;36992;48.200;12.418;2023-03-14T03:09:35;95195.59;;;12.99;55.36
50977;BME280;36992;48.200;12.418;2023-03-14T03:12:01;95195.59;;;12.99;55.33
50977;BME280;36992;48.200;12.418;2023-03-14T03:14:27;95184.34;;;12.97;55.67
50977;BME280;36992;48.200;12.418;2023-03-14T03:16:54;95167.00;;;12.98;55.59
50977;BME280;36992;48.200;12.418;2023-03-14T03:19:22;95177.81;;;12.98;55.26
50977;BME280;36992;48.200;12.418;2023-03-14T03:21:48;95180.84;;;12.97;55.20
50977;BME280;36992;48.200;12.418;2023-03-14T03:24:15;95169.28;;;12.96;55.18
50977;BME280;36992;48.200;12.418;2023-03-14T03:26:41;95148.41;;;12.97;55.36
50977;BME280;36992;48.200;12.418;2023-03-14T03:29:08;95142.91;;;12.93;55.31
50977;BME280;36992;48.200;12.418;2023-03-14T03:31:36;95145.28;;;12.94;54.67
50977;BME280;36992;48.200;12.418;2023-03-14T03:34:03;95132.09;;;12.93;54.96
50977;BME280;36992;48.200;12.418;2023-03-14T03:36:31;95127.84;;;12.92;54.85
50977;BME280;36992;48.200;12.418;2023-03-14T03:38:57;95123.13;;;12.89;55.06
50977;BME280;36992;48.200;12.418;2023-03-14T03:41:24;95124.25;;;12.88;54.88
50977;BME280;36992;48.200;12.418;2023-03-14T03:43:50;95131.91;;;12.86;55.32
50977;BME280;36992;48.200;12.418;2023-03-14T03:46:17;95130.34;;;12.85;55.06
50977;BME280;36992;48.200;12.418;2023-03-14T03:48:43;95128.78;;;12.84;55.29
50977;BME280;36992;48.200;12.418;2023-03-14T03:51:12;95113.72;;;12.82;54.82
50977;BME280;36992;48.200;12.418;2023-03-14T03:53:40;95126.75;;;12.80;54.54
50977;BME280;36992;48.200;12.418;2023-03-14T03:56:08;95129.38;;;12.77;54.91
50977;BME280;36992;48.200;12.418;2023-03-14T03:58:35;95117.00;;;12.76;54.93
50977;BME280;36992;48.200;12.418;2023-03-14T04:01:02;95129.72;;;12.75;54.01
50977;BME280;36992;48.200;12.418;2023-03-14T04:03:29;95121.50;;;12.72;54.70
50977;BME280;36992;48.200;12.418;2023-03-14T04:05:59;95120.50;;;12.76;54.37
50977;BME280;36992;48.200;12.418;2023-03-14T04:08:25;95128.06;;;12.71;54.58
50977;BME280;36992;48.200;12.418;2023-03-14T04:10:55;95127.00;;;12.75;54.31
50977;BME280;36992;48.200;12.418;2023-03-14T04:13:22;95102.97;;;12.70;54.74
50977;BME280;36992;48.200;12.418;2023-03-14T04:15:49;95117.59;;;12.69;55.22
50977;BME280;36992;48.200;12.418;2023-03-14T04:18:15;95118.38;;;12.70;54.65
50977;BME280;36992;48.200;12.418;2023-03-14T04:20:42;95124.13;;;12.68;55.31
50977;BME280;36992;48.200;12.418;2023-03-14T04:23:08;95117.59;;;12.69;54.77
50977;BME280;36992;48.200;12.418;2023-03-14T04:25:35;95116.00;;;12.68;55.22
50977;BME280;36992;48.200;12.418;2023-03-14T04:28:03;95121.41;;;12.68;55.40
50977;BME280;36992;48.200;12.418;2023-03-14T04:30:30;95125.25;;;12.67;55.59
50977;BME280;36992;48.200;12.418;2023-03-14T04:32:56;95124.03;;;12.64;55.66
50977;BME280;36992;48.200;12.418;2023-03-14T04:35:23;95127.53;;;12.65;55.72
50977;BME280;36992;48.200;12.418;2023-03-14T04:37:49;95124.38;;;12.63;55.94
50977;BME280;36992;48.200;12.418;2023-03-14T04:40:17;95118.19;;;12.62;55.92
50977;BME280;36992;48.200;12.418;2023-03-14T04:42:44;95110.41;;;12.61;56.49
50977;BME280;36992;48.200;12.418;2023-03-14T04:45:12;95112.00;;;12.62;56.09
50977;BME280;36992;48.200;12.418;2023-03-14T04:47:38;95116.97;;;12.60;56.11
50977;BME280;36992;48.200;12.418;2023-03-14T04:50:05;95112.69;;;12.59;56.28
50977;BME280;36992;48.200;12.418;2023-03-14T04:52:32;95108.44;;;12.58;55.96
50977;BME280;36992;48.200;12.418;2023-03-14T04:54:58;95104.13;;;12.57;55.72
50977;BME280;36992;48.200;12.418;2023-03-14T04:57:25;95101.00;;;12.54;56.21
50977;BME280;36992;48.200;12.418;2023-03-14T04:59:51;95091.00;;;12.55;56.37
50977;BME280;36992;48.200;12.418;2023-03-14T05:02:19;95083.22;;;12.53;55.68
50977;BME280;36992;48.200;12.418;2023-03-14T05:04:45;95081.66;;;12.52;55.87
50977;BME280;36992;48.200;12.418;2023-03-14T05:07:12;95084.34;;;12.52;55.75
50977;BME280;36992;48.200;12.418;2023-03-14T05:09:38;95089.75;;;12.52;55.96
50977;BME280;36992;48.200;12.418;2023-03-14T05:12:05;95093.22;;;12.53;55.90
50977;BME280;36992;48.200;12.418;2023-03-14T05:14:31;95089.75;;;12.52;55.95
50977;BME280;36992;48.200;12.418;2023-03-14T05:16:58;95095.50;;;12.51;55.76
50977;BME280;36992;48.200;12.418;2023-03-14T05:19:26;95104.84;;;12.53;55.62
50977;BME280;36992;48.200;12.418;2023-03-14T05:21:52;95100.09;;;12.50;55.76
50977;BME280;36992;48.200;12.418;2023-03-14T05:24:19;95104.75;;;12.50;55.53
50977;BME280;36992;48.200;12.418;2023-03-14T05:26:45;95102.38;;;12.48;55.71
50977;BME280;36992;48.200;12.418;2023-03-14T05:29:12;95100.81;;;12.47;55.53
50977;BME280;36992;48.200;12.418;2023-03-14T05:31:38;95090.78;;;12.48;55.47
50977;BME280;36992;48.200;12.418;2023-03-14T05:34:05;95091.13;;;12.46;55.30
50977;BME280;36992;48.200;12.418;2023-03-14T05:36:33;95087.31;;;12.47;55.25
50977;BME280;36992;48.200;12.418;2023-03-14T05:38:59;95086.88;;;12.45;55.36
50977;BME280;36992;48.200;12.418;2023-03-14T05:41:25;95085.28;;;12.44;55.35
50977;BME280;36992;48.200;12.418;2023-03-14T05:43:52;95077.97;;;12.45;55.06
50977;BME280;36992;48.200;12.418;2023-03-14T05:46:18;95077.53;;;12.43;55.11
50977;BME280;36992;48.200;12.418;2023-03-14T05:48:45;95072.47;;;12.41;54.97
50977;BME280;36992;48.200;12.418;2023-03-14T05:51:11;95071.69;;;12.40;54.59
50977;BME280;36992;48.200;12.418;2023-03-14T05:53:39;95072.03;;;12.39;54.88
50977;BME280;36992;48.200;12.418;2023-03-14T05:56:07;95065.41;;;12.36;54.67
50977;BME280;36992;48.200;12.418;2023-03-14T05:58:33;95063.47;;;12.37;54.51
50977;BME280;36992;48.200;12.418;2023-03-14T06:01:01;95073.50;;;12.36;54.62
50977;BME280;36992;48.200;12.418;2023-03-14T06:03:28;95071.16;;;12.35;54.56
50977;BME280;36992;48.200;12.418;2023-03-14T06:05:55;95069.59;;;12.34;54.66
50977;BME280;36992;48.200;12.418;2023-03-14T06:08:21;95060.25;;;12.31;54.58
50977;BME280;36992;48.200;12.418;2023-03-14T06:10:49;95062.94;;;12.31;54.33
50977;BME280;36992;48.200;12.418;2023-03-14T06:13:15;95060.59;;;12.30;54.56
50977;BME280;36992;48.200;12.418;2023-03-14T06:15:42;95054.75;;;12.27;54.33
50977;BME280;36992;48.200;12.418;2023-03-14T06:18:09;95054.38;;;12.29;54.50
50977;BME280;36992;48.200;12.418;2023-03-14T06:20:35;95060.16;;;12.27;54.42
50977;BME280;36992;48.200;12.418;2023-03-14T06:23:04;95053.63;;;12.28;54.68
50977;BME280;36992;48.200;12.418;2023-03-14T06:25:31;95058.22;;;12.28;54.39
50977;BME280;36992;48.200;12.418;2023-03-14T06:27:59;95048.66;;;12.31;54.09
50977;BME280;36992;48.200;12.418;2023-03-14T06:30:25;95046.28;;;12.29;54.51
50977;BME280;36992;48.200;12.418;2023-03-14T06:32:51;95041.69;;;12.30;54.33
50977;BME280;36992;48.200;12.418;2023-03-14T06:35:18;95037.84;;;12.31;54.23
50977;BME280;36992;48.200;12.418;2023-03-14T06:37:44;95032.47;;;12.31;54.13
50977;BME280;36992;48.200;12.418;2023-03-14T06:40:12;95028.63;;;12.32;54.07
50977;BME280;36992;48.200;12.418;2023-03-14T06:42:42;95039.41;;;12.32;54.07
50977;BME280;36992;48.200;12.418;2023-03-14T06:45:10;95038.75;;;12.35;53.42
50977;BME280;36992;48.200;12.418;2023-03-14T06:47:37;95030.22;;;12.33;54.00
50977;BME280;36992;48.200;12.418;2023-03-14T06:50:04;95030.22;;;12.33;53.90
50977;BME280;36992;48.200;12.418;2023-03-14T06:52:31;95033.69;;;12.33;54.01
50977;BME280;36992;48.200;12.418;2023-03-14T06:54:57;95034.81;;;12.32;53.59
50977;BME280;36992;48.200;12.418;2023-03-14T06:57:24;95030.22;;;12.33;53.88
50977;BME280;36992;48.200;12.418;2023-03-14T06:59:50;95030.22;;;12.33;53.53
50977;BME280;36992;48.200;12.418;2023-03-14T07:02:18;95027.50;;;12.33;53.66
50977;BME280;36992;48.200;12.418;2023-03-14T07:04:45;95029.75;;;12.31;53.61
50977;BME280;36992;48.200;12.418;2023-03-14T07:07:11;95034.03;;;12.32;53.83
50977;BME280;36992;48.200;12.418;2023-03-14T07:09:38;95046.75;;;12.31;54.01
50977;BME280;36992;48.200;12.418;2023-03-14T07:12:05;95045.63;;;12.32;53.53
50977;BME280;36992;48.200;12.418;2023-03-14T07:14:31;95050.22;;;12.32;53.73
50977;BME280;36992;48.200;12.418;2023-03-14T07:16:58;95047.19;;;12.33;53.77
50977;BME280;36992;48.200;12.418;2023-03-14T07:19:26;95051.13;;;12.36;53.70
50977;BME280;36992;48.200;12.418;2023-03-14T07:21:52;95048.75;;;12.34;53.86
50977;BME280;36992;48.200;12.418;2023-03-14T07:24:19;95046.84;;;12.35;53.50
50977;BME280;36992;48.200;12.418;2023-03-14T07:26:45;95061.91;;;12.36;53.62
50977;BME280;36992;48.200;12.418;2023-03-14T07:29:12;95053.03;;;12.35;53.44
50977;BME280;36992;48.200;12.418;2023-03-14T07:31:38;95059.22;;;12.36;53.24
50977;BME280;36992;48.200;12.418;2023-03-14T07:34:05;95069.59;;;12.34;53.63
50977;BME280;36992;48.200;12.418;2023-03-14T07:36:33;95076.56;;;12.35;53.35
50977;BME280;36992;48.200;12.418;2023-03-14T07:38:59;95074.19;;;12.33;53.33
50977;BME280;36992;48.200;12.418;2023-03-14T07:41:26;95086.91;;;12.33;53.44
50977;BME280;36992;48.200;12.418;2023-03-14T07:43:52;95083.41;;;12.32;53.45
50977;BME280;36992;48.200;12.418;2023-03-14T07:46:19;95093.41;;;12.32;53.48
50977;BME280;36992;48.200;12.418;2023-03-14T07:48:45;95088.03;;;12.32;53.58
50977;BME280;36992;48.200;12.418;2023-03-14T07:51:11;95093.41;;;12.32;53.36
50977;BME280;36992;48.200;12.418;2023-03-14T07:53:39;95089.63;;;12.33;53.44
50977;BME280;36992;48.200;12.418;2023-03-14T07:56:07;95098.81;;;12.32;53.30
50977;BME280;36992;48.200;12.418;2023-03-14T07:58:33;95108.06;;;12.31;53.69
50977;BME280;36992;48.200;12.418;2023-03-14T08:01:00;95114.69;;;12.33;53.51
50977;BME280;36992;48.200;12.418;2023-03-14T08:03:26;95106.59;;;12.33;53.80
50977;BME280;36992;48.200;12.418;2023-03-14T08:05:53;95106.59;;;12.33;53.38
50977;BME280;36992;48.200;12.418;2023-03-14T08:08:19;95109.63;;;12.32;53.55
50977;BME280;36992;48.200;12.418;2023-03-14T08:10:47;95098.16;;;12.35;53.20
50977;BME280;36992;48.200;12.418;2023-03-14T08:13:14;95091.19;;;12.34;53.35
50977;BME280;36992;48.200;12.418;2023-03-14T08:15:40;95090.06;;;12.35;53.83
50977;BME280;36992;48.200;12.418;2023-03-14T08:18:07;95080.03;;;12.35;53.24
50977;BME280;36992;48.200;12.418;2023-03-14T08:20:35;95081.25;;;12.38;54.08
50977;BME280;36992;48.200;12.418;2023-03-14T08:23:01;95083.94;;;12.38;53.91
50977;BME280;36992;48.200;12.418;2023-03-14T08:25:28;95084.41;;;12.40;53.47
50977;BME280;36992;48.200;12.418;2023-03-14T08:27:56;95087.53;;;12.42;54.10
50977;BME280;36992;48.200;12.418;2023-03-14T08:30:23;95082.94;;;12.43;54.01
50977;BME280;36992;48.200;12.418;2023-03-14T08:32:49;95082.56;;;12.44;53.43
50977;BME280;36992;48.200;12.418;2023-03-14T08:35:16;95085.28;;;12.44;53.79
50977;BME280;36992;48.200;12.418;2023-03-14T08:37:43;95076.84;;;12.46;53.98
50977;BME280;36992;48.200;12.418;2023-03-14T08:40:10;95073.78;;;12.47;54.10
50977;BME280;36992;48.200;12.418;2023-03-14T08:42:37;95079.63;;;12.49;53.88
50977;BME280;36992;48.200;12.418;2023-03-14T08:45:07;95083.22;;;12.53;53.06
50977;BME280;36992;48.200;12.418;2023-03-14T08:47:34;95075.78;;;12.50;53.85
50977;BME280;36992;48.200;12.418;2023-03-14T08:50:00;95085.50;;;12.51;54.41
50977;BME280;36992;48.200;12.418;2023-03-14T08:52:27;95089.75;;;12.52;53.89
50977;BME280;36992;48.200;12.418;2023-03-14T08:54:53;95085.13;;;12.53;53.44
50977;BME280;36992;48.200;12.418;2023-03-14T08:57:20;95081.66;;;12.52;53.58
50977;BME280;36992;48.200;12.418;2023-03-14T08:59:47;95084.78;;;12.54;53.81
50977;BME280;36992;48.200;12.418;2023-03-14T09:02:14;95081.41;;;12.58;53.94
50977;BME280;36992;48.200;12.418;2023-03-14T09:04:41;95078.72;;;12.58;54.03
50977;BME280;36992;48.200;12.418;2023-03-14T09:07:07;95082.97;;;12.59;53.99
50977;BME280;36992;48.200;12.418;2023-03-14T09:09:34;95087.25;;;12.60;53.46
50977;BME280;36992;48.200;12.418;2023-03-14T09:12:00;95094.22;;;12.61;53.74
50977;BME280;36992;48.200;12.418;2023-03-14T09:14:27;95099.63;;;12.61;53.64
50977;BME280;36992;48.200;12.418;2023-03-14T09:16:54;95102.75;;;12.63;53.77
50977;BME280;36992;48.200;12.418;2023-03-14T09:19:22;95100.50;;;12.65;53.88
50977;BME280;36992;48.200;12.418;2023-03-14T09:21:48;95106.69;;;12.65;53.60
50977;BME280;36992;48.200;12.418;2023-03-14T09:24:15;95102.84;;;12.66;53.59
50977;BME280;36992;48.200;12.418;2023-03-14T09:26:41;95104.44;;;12.67;53.79
50977;BME280;36992;48.200;12.418;2023-03-14T09:29:08;95106.00;;;12.68;53.35
50977;BME280;36992;48.200;12.418;2023-03-14T09:31:34;95100.25;;;12.70;54.00
50977;BME280;36992;48.200;12.418;2023-03-14T09:34:01;95099.91;;;12.72;53.75
50977;BME280;36992;48.200;12.418;2023-03-14T09:36:29;95105.41;;;12.75;53.98
50977;BME280;36992;48.200;12.418;2023-03-14T09:38:56;95116.19;;;12.75;54.04
50977;BME280;36992;48.200;12.418;2023-03-14T09:41:25;95117.09;;;12.79;53.73
50977;BME280;36992;48.200;12.418;2023-03-14T09:43:58;95122.94;;;12.81;53.46
50977;BME280;36992;48.200;12.418;2023-03-14T09:46:27;95120.59;;;12.80;54.07
50977;BME280;36992;48.200;12.418;2023-03-14T09:48:54;95119.47;;;12.81;54.17
50977;BME280;36992;48.200;12.418;2023-03-14T09:51:21;95124.53;;;12.82;53.85
50977;BME280;36992;48.200;12.418;2023-03-14T09:53:50;95119.56;;;12.85;54.04
50977;BME280;36992;48.200;12.418;2023-03-14T09:56:19;95119.22;;;12.86;53.95
50977;BME280;36992;48.200;12.418;2023-03-14T09:58:49;95113.00;;;12.86;53.70
50977;BME280;36992;48.200;12.418;2023-03-14T10:01:20;95124.25;;;12.88;53.45
50977;BME280;36992;48.200;12.418;2023-03-14T10:03:49;95115.28;;;12.84;54.01
50977;BME280;36992;48.200;12.418;2023-03-14T10:06:20;95116.84;;;12.85;53.37
50977;BME280;36992;48.200;12.418;2023-03-14T10:08:50;95117.28;;;12.87;53.08
50977;BME280;36992;48.200;12.418;2023-03-14T10:11:21;95117.72;;;12.89;53.39
50977;BME280;36992;48.200;12.418;2023-03-14T10:13:49;95117.28;;;12.87;53.19
50977;BME280;36992;48.200;12.418;2023-03-14T10:16:16;95121.53;;;12.88;53.55
50977;BME280;36992;48.200;12.418;2023-03-14T10:18:44;95124.72;;;12.90;53.06
50977;BME280;36992;48.200;12.418;2023-03-14T10:21:21;95111.28;;;12.93;52.88
50977;BME280;36992;48.200;12.418;2023-03-14T10:23:52;95113.53;;;12.91;53.33
50977;BME280;36992;48.200;12.418;2023-03-14T10:26:23;95109.34;;;12.94;53.23
50977;BME280;36992;48.200;12.418;2023-03-14T10:28:51;95088.44;;;12.91;53.54
50977;BME280;36992;48.200;12.418;2023-03-14T10:31:19;95094.28;;;12.93;53.20
50977;BME280;36992;48.200;12.418;2023-03-14T10:33:58;95099.00;;;12.96;53.61
50977;BME280;36992;48.200;12.418;2023-03-14T10:36:28;95088.19;;;12.96;54.16
50977;BME280;36992;48.200;12.418;2023-03-14T10:39:18;95068.13;;;12.97;53.54
50977;BME280;36992;48.200;12.418;2023-03-14T10:41:50;95053.41;;;12.94;53.04
50977;BME280;36992;48.200;12.418;2023-03-14T10:44:21;95053.72;;;12.93;52.42
50977;BME280;36992;48.200;12.418;2023-03-14T10:46:55;95048.78;;;12.95;52.53
50977;BME280;36992;48.200;12.418;2023-03-14T10:49:27;95048.78;;;12.95;52.15
50977;BME280;36992;48.200;12.418;2023-03-14T10:51:54;95054.06;;;12.91;52.37
50977;BME280;36992;48.200;12.418;2023-03-14T10:54:23;95053.72;;;12.93;52.31
50977;BME280;36992;48.200;12.418;2023-03-14T10:56:57;95065.75;;;12.95;52.00
50977;BME280;36992;48.200;12.418;2023-03-14T10:59:27;95055.28;;;12.94;51.96
50977;BME280;36992;48.200;12.418;2023-03-14T11:01:58;95053.41;;;12.94;51.86
50977;BME280;36992;48.200;12.418;2023-03-14T11:04:43;95053.47;;;12.98;51.57
50977;BME280;36992;48.200;12.418;2023-03-14T11:07:16;95050.34;;;12.96;51.43
50977;BME280;36992;48.200;12.418;2023-03-14T11:09:53;95053.47;;;12.98;51.16
50977;BME280;36992;48.200;12.418;2023-03-14T11:12:38;95058.19;;;13.01;51.37
50977;BME280;36992;48.200;12.418;2023-03-14T11:15:14;95066.31;;;13.01;51.58
50977;BME280;36992;48.200;12.418;2023-03-14T11:17:46;95060.81;;;13.14;51.51
50977;BME280;36992;48.200;12.418;2023-03-14T11:20:30;95068.38;;;13.08;51.77
50977;BME280;36992;48.200;12.418;2023-03-14T11:23:03;95062.97;;;13.08;51.55
50977;BME280;36992;48.200;12.418;2023-03-14T11:25:38;95063.41;;;13.10;51.69
50977;BME280;36992;48.200;12.418;2023-03-14T11:28:09;95061.75;;;13.21;51.43
50977;BME280;36992;48.200;12.418;2023-03-14T11:30:50;95067.88;;;13.18;51.41
50977;BME280;36992;48.200;12.418;2023-03-14T11:33:21;95071.34;;;13.19;51.64
50977;BME280;36992;48.200;12.418;2023-03-14T11:35:55;95059.06;;;13.21;51.58
50977;BME280;36992;48.200;12.418;2023-03-14T11:38:30;95060.72;;;13.26;51.87
50977;BME280;36992;48.200;12.418;2023-03-14T11:41:00;95057.66;;;13.28;50.68
50977;BME280;36992;48.200;12.418;2023-03-14T11:43:29;95057.72;;;13.31;50.60
50977;BME280;36992;48.200;12.418;2023-03-14T11:46:03;95043.53;;;13.34;50.24
50977;BME280;36992;48.200;12.418;2023-03-14T11:48:38;95050.16;;;13.37;50.76
50977;BME280;36992;48.200;12.418;2023-03-14T11:51:10;95043.25;;;13.40;50.82
50977;BME280;36992;48.200;12.418;2023-03-14T11:53:45;95038.28;;;13.42;50.31
50977;BME280;36992;48.200;12.418;2023-03-14T11:56:19;95043.34;;;13.43;50.89
50977;BME280;36992;48.200;12.418;2023-03-14T11:58:53;95037.56;;;13.45;50.79
50977;BME280;36992;48.200;12.418;2023-03-14T12:01:23;95047.59;;;13.44;50.78
50977;BME280;36992;48.200;12.418;2023-03-14T12:03:54;95028.38;;;13.46;50.91
50977;BME280;36992;48.200;12.418;2023-03-14T12:06:25;95040.75;;;13.47;51.21
50977;BME280;36992;48.200;12.418;2023-03-14T12:08:55;95024.50;;;13.47;51.83
50977;BME280;36992;48.200;12.418;2023-03-14T12:11:33;95027.72;;;13.53;51.34
50977;BME280;36992;48.200;12.418;2023-03-14T12:14:02;95022.22;;;13.49;51.27
50977;BME280;36992;48.200;12.418;2023-03-14T12:16:34;95018.13;;;13.55;51.81
50977;BME280;36992;48.200;12.418;2023-03-14T12:19:26;95009.72;;;13.60;51.73
50977;BME280;36992;48.200;12.418;2023-03-14T12:21:56;95023.59;;;13.59;51.97
50977;BME280;36992;48.200;12.418;2023-03-14T12:24:26;95009.47;;;13.66;52.42
50977;BME280;36992;48.200;12.418;2023-03-14T12:26:57;95008.41;;;13.70;52.39
50977;BME280;36992;48.200;12.418;2023-03-14T12:29:24;95008.13;;;13.75;52.30
50977;BME280;36992;48.200;12.418;2023-03-14T12:32:07;95002.16;;;13.86;51.57
50977;BME280;36992;48.200;12.418;2023-03-14T12:34:34;94998.31;;;13.87;51.66
50977;BME280;36992;48.200;12.418;2023-03-14T12:37:12;94991.09;;;13.95;51.50
50977;BME280;36992;48.200;12.418;2023-03-14T12:39:47;94982.69;;;14.00;50.87
50977;BME280;36992;48.200;12.418;2023-03-14T12:42:33;94980.44;;;14.02;51.17
50977;BME280;36992;48.200;12.418;2023-03-14T12:45:15;94980.13;;;14.07;50.83
50977;BME280;36992;48.200;12.418;2023-03-14T12:47:53;94976.28;;;14.08;50.60
50977;BME280;36992;48.200;12.418;2023-03-14T12:50:25;94967.78;;;14.10;50.38
50977;BME280;36992;48.200;12.418;2023-03-14T12:56:02;94972.16;;;14.14;49.14
50977;BME280;36992;48.200;12.418;2023-03-14T12:58:35;94972.56;;;14.16;49.21
50977;BME280;36992;48.200;12.418;2023-03-14T13:01:06;94973.72;;;14.15;48.80